Time;durP1;ratioP1;P1;durP2;ratioP2;P2;SDS_P1;SDS_P2;PMS_P1;PMS_P2;Temp;Humidity;BMP_temperature;BMP_pressure;BME280_temperature;BME280_humidity;BME280_pressure;Samples;Min_cycle;Max_cycle;Signal;HPM_P1;HPM_P2
2022/10/19 02:50:36;;;;;;;16.80;6.03;;;;;;;-145.18;100.00;46672.13;5010545;28;20768;-68
2022/10/19 02:54:22;;;;;;;20.20;5.30;;;;;;;-145.18;100.00;46666.25;4993639;28;20272;-69
2022/10/19 02:58:08;;;;;;;20.67;5.87;;;;;;;-145.18;100.00;46670.16;4993320;28;21014;-68
2022/10/19 03:03:38;;;;;;;18.67;5.47;;;;;;;-145.18;100.00;46662.34;5050999;23;20290;-69
2022/10/19 03:06:03;;;;;;;18.57;5.60;;;;;;;-145.18;100.00;46668.22;5044467;28;20286;-69
2022/10/19 03:08:28;;;;;;;21.40;5.97;;;;;;;-145.18;100.00;46668.22;5052571;28;20044;-69
2022/10/19 03:10:57;;;;;;;17.00;5.63;;;;;;;-145.18;100.00;46664.31;5052905;28;20033;-69
2022/10/19 03:13:23;;;;;;;17.23;5.47;;;;;;;-145.18;100.00;46664.31;5052417;28;20162;-68
2022/10/19 03:15:49;;;;;;;14.97;5.70;;;;;;;-145.18;100.00;46670.16;5052833;28;20806;-68
2022/10/19 03:18:14;;;;;;;12.93;4.90;;;;;;;-145.18;100.00;46664.31;5052567;28;20045;-68
2022/10/19 03:20:39;;;;;;;17.50;5.43;;;;;;;-145.18;100.00;46672.13;5052985;28;20033;-68
2022/10/19 03:23:05;;;;;;;15.17;5.67;;;;;;;-145.18;100.00;46666.25;5052446;28;20442;-68
2022/10/19 03:25:30;;;;;;;13.33;5.80;;;;;;;-145.18;100.00;46664.31;5053052;28;20090;-68
2022/10/19 03:27:55;;;;;;;17.30;5.73;;;;;;;-145.18;100.00;46668.22;5052227;28;20040;-69
2022/10/19 03:30:21;;;;;;;15.77;5.80;;;;;;;-145.18;100.00;46674.06;5053116;28;20037;-69
2022/10/19 03:32:46;;;;;;;10.43;4.67;;;;;;;-145.18;100.00;46668.22;5033973;28;20045;-69
2022/10/19 03:35:11;;;;;;;14.97;5.63;;;;;;;-145.18;100.00;46670.16;5052257;28;20508;-68
2022/10/19 03:37:37;;;;;;;11.77;4.47;;;;;;;-145.18;100.00;46664.31;5051933;28;20081;-69
2022/10/19 03:40:02;;;;;;;13.13;4.67;;;;;;;-145.18;100.00;46660.41;5052712;28;20041;-68
2022/10/19 03:42:28;;;;;;;11.50;5.40;;;;;;;-145.18;100.00;46668.22;5052323;28;20485;-68
2022/10/19 03:44:53;;;;;;;14.17;5.17;;;;;;;-145.18;100.00;46664.31;5033229;28;20033;-69
2022/10/19 03:47:19;;;;;;;15.30;4.90;;;;;;;-145.18;100.00;46666.25;5051677;28;20044;-69
2022/10/19 03:49:44;;;;;;;21.90;6.10;;;;;;;-145.18;100.00;46670.16;5051769;28;20060;-69
2022/10/19 03:52:09;;;;;;;23.10;6.00;;;;;;;-145.18;100.00;46660.41;5046253;28;20489;-69
2022/10/19 03:54:35;;;;;;;19.60;5.70;;;;;;;-145.18;100.00;46664.31;5051467;28;20041;-69
2022/10/19 03:57:00;;;;;;;12.33;4.73;;;;;;;-145.18;100.00;46666.25;5051907;28;20041;-69
2022/10/19 03:59:26;;;;;;;12.33;4.87;;;;;;;-145.18;100.00;46664.31;5068691;28;20029;-69
2022/10/19 04:01:51;;;;;;;13.93;4.70;;;;;;;-145.18;100.00;46664.31;5058611;28;20427;-68
2022/10/19 04:04:18;;;;;;;20.13;4.93;;;;;;;-145.18;100.00;46666.25;5071569;28;20029;-69
2022/10/19 04:06:45;;;;;;;18.30;4.43;;;;;;;-145.18;100.00;46668.22;5071573;28;20029;-69
2022/10/19 04:09:13;;;;;;;18.33;5.60;;;;;;;-145.18;100.00;46670.16;5071644;28;20623;-69
2022/10/19 04:11:40;;;;;;;12.20;4.30;;;;;;;-145.18;100.00;46672.13;5071482;28;20769;-69
2022/10/19 04:14:05;;;;;;;14.67;5.67;;;;;;;-145.18;100.00;46670.16;5071521;28;20281;-69
2022/10/19 04:16:31;;;;;;;20.20;5.83;;;;;;;-145.18;100.00;46666.25;5071645;28;20633;-69
2022/10/19 04:18:57;;;;;;;17.27;5.30;;;;;;;-145.18;100.00;46670.16;5071344;28;20082;-69
2022/10/19 04:21:28;;;;;;;23.33;6.40;;;;;;;-145.18;100.00;46666.25;5071962;28;20757;-68
2022/10/19 04:24:00;;;;;;;15.57;5.20;;;;;;;-145.18;100.00;46662.34;5069363;28;20364;-68
2022/10/19 04:26:26;;;;;;;18.67;5.10;;;;;;;-145.18;100.00;46664.31;5064508;28;20288;-69
2022/10/19 04:28:52;;;;;;;13.23;4.83;;;;;;;-145.18;100.00;46664.31;5069647;28;20710;-68
2022/10/19 04:31:17;;;;;;;12.33;4.50;;;;;;;-145.18;100.00;46668.22;5070652;28;20071;-69
2022/10/19 04:33:43;;;;;;;18.43;4.27;;;;;;;-145.18;100.00;46666.25;5069745;28;20059;-69
2022/10/19 04:36:10;;;;;;;12.33;4.03;;;;;;;-145.18;100.00;46668.22;5070251;28;20452;-69
2022/10/19 04:38:36;;;;;;;10.20;4.30;;;;;;;-145.18;100.00;46668.22;5071027;28;20033;-69
2022/10/19 04:41:10;;;;;;;12.33;4.80;;;;;;;-145.18;100.00;46668.22;5071399;28;20272;-69
2022/10/19 04:43:36;;;;;;;14.23;6.97;;;;;;;-145.18;100.00;46666.25;5070589;28;20640;-69
2022/10/19 04:46:10;;;;;;;17.07;6.13;;;;;;;-145.18;100.00;46670.16;5069524;28;20323;-69
2022/10/19 04:48:37;;;;;;;14.70;4.80;;;;;;;-145.18;100.00;46672.13;5070510;28;20048;-69
2022/10/19 04:51:03;;;;;;;11.40;4.27;;;;;;;-145.18;100.00;46670.16;5071217;28;20276;-69
2022/10/19 04:53:28;;;;;;;9.23;4.40;;;;;;;-145.18;100.00;46674.06;5070200;28;20311;-69
2022/10/19 04:55:54;;;;;;;11.33;4.47;;;;;;;-145.18;100.00;46670.16;5069830;28;20301;-69
2022/10/19 04:58:19;;;;;;;14.17;4.60;;;;;;;-145.18;100.00;46670.16;5070557;28;20039;-69
2022/10/19 05:00:45;;;;;;;15.97;4.70;;;;;;;-145.18;100.00;46668.22;5070771;28;20139;-69
2022/10/19 05:03:11;;;;;;;15.57;5.07;;;;;;;-145.18;100.00;46662.34;5070331;28;20489;-69
2022/10/19 05:05:36;;;;;;;14.70;5.30;;;;;;;-145.18;100.00;46668.22;5052787;28;20052;-68
2022/10/19 05:08:02;;;;;;;15.93;5.00;;;;;;;-145.18;100.00;46672.13;5070514;28;20520;-69
2022/10/19 05:10:27;;;;;;;19.43;5.37;;;;;;;-145.18;100.00;46670.16;5067588;28;20024;-69
2022/10/19 05:12:52;;;;;;;23.27;6.33;;;;;;;-145.18;100.00;46664.31;5040096;28;20032;-69
2022/10/19 05:15:18;;;;;;;19.30;5.53;;;;;;;-145.18;100.00;46668.22;5070777;28;20035;-69
2022/10/19 05:17:43;;;;;;;11.73;4.37;;;;;;;-145.18;100.00;46670.16;5069775;28;20041;-69
2022/10/19 05:20:12;;;;;;;12.20;4.43;;;;;;;-145.18;100.00;46668.22;5071086;28;20036;-69
2022/10/19 05:22:38;;;;;;;13.83;5.20;;;;;;;-145.18;100.00;46674.06;5070297;28;20027;-68
2022/10/19 05:25:04;;;;;;;11.70;5.00;;;;;;;-145.18;100.00;46670.16;5070674;28;20278;-69
2022/10/19 05:27:29;;;;;;;13.43;4.70;;;;;;;-145.18;100.00;46668.22;5069553;28;20086;-68
2022/10/19 05:29:55;;;;;;;13.03;5.43;;;;;;;-145.18;100.00;46677.97;5070331;28;20285;-68
2022/10/19 05:32:20;;;;;;;14.90;5.30;;;;;;;-145.18;100.00;46666.25;5070296;28;20036;-69
2022/10/19 05:34:45;;;;;;;12.33;4.97;;;;;;;-145.18;100.00;46666.25;5070543;28;20493;-69
2022/10/19 05:37:11;;;;;;;15.57;7.03;;;;;;;-145.18;100.00;46670.16;5070563;28;20036;-69
2022/10/19 05:39:36;;;;;;;14.23;6.60;;;;;;;-145.18;100.00;46668.22;5070166;28;20045;-69
2022/10/19 05:42:02;;;;;;;13.70;6.17;;;;;;;-145.18;100.00;46668.22;5066003;28;20041;-69
2022/10/19 05:44:27;;;;;;;26.23;6.87;;;;;;;-145.18;100.00;46662.34;5064242;28;20040;-68
2022/10/19 05:46:52;;;;;;;14.93;6.10;;;;;;;-145.18;100.00;46668.22;5065264;28;20032;-69
2022/10/19 05:49:20;;;;;;;12.40;5.87;;;;;;;-145.18;100.00;46672.13;5068065;28;20082;-69
2022/10/19 05:51:45;;;;;;;8.83;5.43;;;;;;;-145.18;100.00;46664.31;5070289;28;20094;-69
2022/10/19 05:54:11;;;;;;;13.40;5.77;;;;;;;-145.18;100.00;46670.16;5068388;28;20848;-69
2022/10/19 05:56:38;;;;;;;11.93;5.80;;;;;;;-145.18;100.00;46672.13;5065565;28;20492;-69
2022/10/19 05:59:05;;;;;;;14.17;5.77;;;;;;;-145.18;100.00;46670.16;5073710;28;20044;-69
2022/10/19 06:01:31;;;;;;;10.70;5.60;;;;;;;-145.18;100.00;46666.25;5074052;28;20319;-69
2022/10/19 06:03:58;;;;;;;14.00;5.20;;;;;;;-145.18;100.00;46668.22;5073422;28;20282;-69
2022/10/19 06:06:25;;;;;;;10.33;5.33;;;;;;;-145.18;100.00;46666.25;5074310;28;20334;-69
2022/10/19 06:08:52;;;;;;;13.93;5.10;;;;;;;-145.18;100.00;46666.25;5073513;28;20856;-69
2022/10/19 06:11:21;;;;;;;14.90;5.70;;;;;;;-145.18;100.00;46670.16;5074056;28;20293;-69
2022/10/19 06:13:49;;;;;;;14.43;5.40;;;;;;;-145.18;100.00;46666.25;5070957;28;20285;-69
2022/10/19 06:16:16;;;;;;;15.97;5.23;;;;;;;-145.18;100.00;46662.34;5073070;28;20261;-69
2022/10/19 06:18:42;;;;;;;22.47;6.93;;;;;;;-145.18;100.00;46660.41;5071726;28;20308;-69
2022/10/19 06:21:14;;;;;;;13.83;5.70;;;;;;;-145.18;100.00;46662.34;5074297;28;20273;-69
2022/10/19 06:23:40;;;;;;;15.10;6.87;;;;;;;-145.18;100.00;46664.31;5073330;28;20031;-69
2022/10/19 06:26:08;;;;;;;25.17;7.43;;;;;;;-145.18;100.00;46668.22;5073778;28;20704;-69
2022/10/19 06:28:35;;;;;;;16.73;7.53;;;;;;;-145.18;100.00;46660.41;5073355;28;20150;-69
2022/10/19 06:31:01;;;;;;;20.70;6.50;;;;;;;-145.18;100.00;46666.25;5071114;28;20276;-69
2022/10/19 06:33:27;;;;;;;16.90;7.23;;;;;;;-145.18;100.00;46660.41;5073315;28;20623;-69
2022/10/19 06:35:52;;;;;;;20.40;6.53;;;;;;;-145.18;100.00;46662.34;5073527;28;20374;-70
2022/10/19 06:38:18;;;;;;;22.73;7.13;;;;;;;-145.18;100.00;46662.34;5075497;28;20292;-70
2022/10/19 06:40:43;;;;;;;14.83;6.40;;;;;;;-145.18;100.00;46662.34;5093947;28;20441;-69
2022/10/19 06:43:09;;;;;;;14.20;6.47;;;;;;;-145.18;100.00;46668.22;5093488;28;20366;-70
2022/10/19 06:45:37;;;;;;;16.00;5.97;;;;;;;-145.18;100.00;46660.41;5093906;28;20052;-70
2022/10/19 06:48:03;;;;;;;12.10;5.70;;;;;;;-145.18;100.00;46664.31;5075614;28;20074;-70
2022/10/19 06:50:30;;;;;;;14.13;5.90;;;;;;;-145.18;100.00;46660.41;5093792;28;20271;-70
2022/10/19 06:52:59;;;;;;;11.67;5.73;;;;;;;-145.18;100.00;46662.34;5093524;28;20356;-70
2022/10/19 06:55:25;;;;;;;17.07;5.30;;;;;;;-145.18;100.00;46658.44;5093963;28;20303;-70
2022/10/19 06:57:50;;;;;;;13.40;6.03;;;;;;;-145.18;100.00;46660.41;5086278;28;20308;-70
2022/10/19 07:00:16;;;;;;;10.50;5.90;;;;;;;-145.18;100.00;46658.44;5073592;28;20039;-70
2022/10/19 07:02:41;;;;;;;11.80;5.70;;;;;;;-145.18;100.00;46660.41;5072264;28;20052;-70
2022/10/19 07:05:07;;;;;;;17.20;6.07;;;;;;;-145.18;100.00;46662.34;5073434;28;20056;-70
2022/10/19 07:07:33;;;;;;;16.77;6.10;;;;;;;-145.18;100.00;46658.44;5072958;28;20043;-70
2022/10/19 07:09:58;;;;;;;18.30;5.87;;;;;;;-145.18;100.00;46658.44;5071399;28;20500;-70
2022/10/19 07:12:24;;;;;;;13.10;5.37;;;;;;;-145.18;100.00;46660.41;5071182;28;20021;-70
2022/10/19 07:14:49;;;;;;;12.83;6.07;;;;;;;-145.18;100.00;46660.41;5077270;28;20396;-70
2022/10/19 07:17:15;;;;;;;16.17;6.30;;;;;;;-145.18;100.00;46662.34;5056239;28;20072;-70
2022/10/19 07:19:41;;;;;;;16.33;7.23;;;;;;;-145.18;100.00;46654.53;5052427;28;20029;-70
2022/10/19 07:22:06;;;;;;;12.17;6.27;;;;;;;-145.18;100.00;46660.41;5053018;28;20643;-70
2022/10/19 07:24:31;;;;;;;12.90;7.17;;;;;;;-145.18;100.00;46658.44;5052512;28;20068;-70
2022/10/19 07:26:57;;;;;;;16.03;6.83;;;;;;;-145.18;100.00;46660.41;5034840;28;20028;-70
2022/10/19 07:29:22;;;;;;;16.73;7.17;;;;;;;-145.18;100.00;46658.44;5052431;28;20041;-70
2022/10/19 07:31:48;;;;;;;12.57;7.70;;;;;;;-145.18;100.00;46664.31;5052584;28;20148;-70
2022/10/19 07:34:14;;;;;;;18.33;7.23;;;;;;;-145.18;100.00;46660.41;5052342;28;20075;-70
2022/10/19 07:36:43;;;;;;;13.93;7.20;;;;;;;-145.18;100.00;46658.44;5052553;28;20455;-70
2022/10/19 07:39:09;;;;;;;15.23;7.53;;;;;;;-145.18;100.00;46664.31;5034715;28;20045;-70
2022/10/19 07:41:35;;;;;;;12.07;6.63;;;;;;;-145.18;100.00;46662.34;5052512;28;20273;-70
2022/10/19 07:44:00;;;;;;;20.13;7.57;;;;;;;-145.18;100.00;46658.44;5052309;28;20266;-70
2022/10/19 07:46:28;;;;;;;13.00;7.87;;;;;;;-145.18;100.00;46664.31;5064950;28;20556;-70
2022/10/19 07:48:54;;;;;;;15.47;7.47;;;;;;;-145.18;100.00;46668.22;5051975;28;20250;-70
2022/10/19 07:51:21;;;;;;;16.73;7.90;;;;;;;-145.18;100.00;46662.34;5061179;28;20272;-70
2022/10/19 07:53:47;;;;;;;18.60;9.23;;;;;;;-145.18;100.00;46664.31;5071838;28;20309;-70
2022/10/19 07:56:15;;;;;;;13.30;7.87;;;;;;;-145.18;100.00;46662.34;5072370;28;21067;-70
2022/10/19 07:58:41;;;;;;;14.27;8.50;;;;;;;-145.18;100.00;46660.41;5045867;28;20290;-70
2022/10/19 08:01:13;;;;;;;16.77;9.37;;;;;;;-145.18;100.00;46664.31;5052299;28;20845;-70
2022/10/19 08:03:39;;;;;;;28.17;15.73;;;;;;;-145.18;100.00;46662.34;5051478;28;20077;-70
2022/10/19 08:06:08;;;;;;;18.13;10.03;;;;;;;-145.18;100.00;46668.22;5051753;28;20310;-70
2022/10/19 08:08:34;;;;;;;19.63;8.97;;;;;;;-145.18;100.00;46660.41;5051271;28;20052;-70
2022/10/19 08:11:11;;;;;;;18.03;8.73;;;;;;;-145.18;100.00;46670.16;5051972;28;20705;-70
2022/10/19 08:13:37;;;;;;;18.97;7.60;;;;;;;-145.18;100.00;46666.25;5055571;28;20311;-70
2022/10/19 08:16:03;;;;;;;14.80;7.33;;;;;;;-145.18;100.00;46664.31;5045391;28;20265;-70
2022/10/19 08:18:29;;;;;;;21.03;8.47;;;;;;;-145.18;100.00;46660.41;5033702;28;20086;-70
2022/10/19 08:20:55;;;;;;;18.70;7.77;;;;;;;-145.18;100.00;46670.16;5067221;28;20546;-70
2022/10/19 08:23:21;;;;;;;20.47;9.27;;;;;;;-145.18;100.00;46666.25;5071150;28;20113;-69
2022/10/19 08:25:47;;;;;;;17.93;7.60;;;;;;;-145.18;100.00;46672.13;5071477;28;20520;-70
2022/10/19 08:28:12;;;;;;;15.70;7.90;;;;;;;-145.18;100.00;46666.25;5062137;28;20274;-70
2022/10/19 08:30:38;;;;;;;18.23;7.10;;;;;;;-145.18;100.00;46672.13;5053691;28;20036;-70
2022/10/19 08:33:06;;;;;;;11.60;7.33;;;;;;;-145.18;100.00;46672.13;5071147;28;20036;-71
2022/10/19 08:35:31;;;;;;;13.27;7.03;;;;;;;-145.18;100.00;46672.13;5071268;28;20037;-71
2022/10/19 08:37:57;;;;;;;14.57;6.87;;;;;;;-145.18;100.00;46674.06;5071122;28;20040;-70
2022/10/19 08:40:26;;;;;;;14.33;6.20;;;;;;;-145.18;100.00;46674.06;5071551;28;20028;-71
2022/10/19 08:43:15;;;;;;;17.27;6.70;;;;;;;-145.18;100.00;46672.13;5071105;28;20031;-71
2022/10/19 08:45:51;;;;;;;14.47;6.23;;;;;;;-145.18;100.00;46676.03;5054730;28;20040;-71
2022/10/19 08:48:31;;;;;;;13.35;5.97;;;;;;;-145.18;100.00;46674.06;5061084;28;20025;-71
2022/10/19 08:50:59;;;;;;;18.67;6.40;;;;;;;-145.18;100.00;46676.03;5052678;28;20040;-71
2022/10/19 08:53:44;;;;;;;8.47;5.93;;;;;;;-145.18;100.00;46677.97;5051292;28;20079;-71
2022/10/19 08:56:52;;;;;;;12.05;5.43;;;;;;;-145.18;100.00;46676.03;5050661;28;20488;-71
2022/10/19 08:59:37;;;;;;;16.23;6.10;;;;;;;-145.18;100.00;46679.94;4989031;28;20023;-71
2022/10/19 09:02:41;;;;;;;15.18;6.03;;;;;;;-145.18;100.00;46679.94;5065490;28;20093;-71
2022/10/19 09:05:19;;;;;;;10.10;5.43;;;;;;;-145.18;100.00;46679.94;5052719;28;20373;-71
2022/10/19 09:07:46;;;;;;;11.07;5.93;;;;;;;-145.18;100.00;46681.88;5070595;28;20017;-71
2022/10/19 09:10:15;;;;;;;12.90;5.20;;;;;;;-145.18;100.00;46683.84;5070737;28;20028;-71
2022/10/19 09:12:59;;;;;;;12.17;5.47;;;;;;;-145.18;100.00;46679.94;5070797;28;20036;-71
2022/10/19 09:15:43;;;;;;;9.73;4.97;;;;;;;-145.18;100.00;46683.84;5070539;28;20064;-71
2022/10/19 09:18:21;;;;;;;11.17;3.87;;;;;;;-145.18;100.00;46683.84;5070203;28;20028;-71
2022/10/19 09:20:50;;;;;;;9.73;4.50;;;;;;;-145.18;100.00;46681.88;5070446;28;20027;-71
2022/10/19 09:23:39;;;;;;;12.60;4.57;;;;;;;-145.18;100.00;46687.75;5070072;28;20033;-71
2022/10/19 09:26:14;;;;;;;12.47;4.50;;;;;;;-145.18;100.00;46679.94;5070767;28;20031;-71
2022/10/19 09:28:51;;;;;;;11.90;4.00;;;;;;;-145.18;100.00;46681.88;5069866;28;20430;-72
2022/10/19 09:31:35;;;;;;;11.97;3.67;;;;;;;-145.18;100.00;46658.44;5069911;28;20037;-71
2022/10/19 09:34:14;;;;;;;10.67;3.57;;;;;;;-145.18;100.00;46662.34;5070159;28;20028;-71
2022/10/19 09:36:50;;;;;;;7.33;3.57;;;;;;;-145.18;100.00;46648.69;5070326;28;20034;-71
2022/10/19 09:39:16;;;;;;;;;;;;;;;-145.18;100.00;46615.47;5070626;28;20131;-71
2022/10/19 09:41:48;;;;;;;11.55;3.13;;;;;;;-145.18;100.00;46599.84;5070322;28;20420;-71
2022/10/19 09:44:14;;;;;;;6.77;2.60;;;;;;;-145.18;100.00;46584.22;5052847;28;20054;-71
2022/10/19 09:46:56;;;;;;;7.73;3.17;;;;;;;-145.18;100.00;46578.34;5070270;28;20028;-71
2022/10/19 09:49:44;;;;;;;8.00;2.70;;;;;;;-145.18;100.00;46566.63;5069983;28;20035;-71
2022/10/19 09:52:28;;;;;;;7.77;2.50;;;;;;;-145.18;100.00;46562.72;5070392;28;20104;-71
2022/10/19 09:55:05;;;;;;;9.30;2.40;;;;;;;-145.18;100.00;46562.72;5069786;28;20020;-71
2022/10/19 09:57:30;;;;;;;7.30;2.53;;;;;;;-145.18;100.00;46570.53;5056474;28;20086;-71
2022/10/19 09:59:56;;;;;;;15.03;2.83;;;;;;;-145.18;100.00;46564.69;5060907;28;20485;-71
2022/10/19 10:02:32;;;;;;;7.73;2.60;;;;;;;-145.18;100.00;46566.63;5057952;28;20194;-71
2022/10/19 10:05:09;;;;;;;12.45;2.20;;;;;;;-145.18;100.00;46570.53;5049711;28;20124;-71
2022/10/19 10:07:37;;;;;;;5.97;1.70;;;;;;;-145.18;100.00;46568.59;5049960;28;20024;-72
2022/10/19 10:10:34;;;;;;;8.97;2.00;;;;;;;-145.18;100.00;46586.16;5049574;28;20481;-71
2022/10/19 10:13:00;;;;;;;5.00;2.00;;;;;;;-145.18;100.00;46582.25;5048641;28;20044;-72
2022/10/19 10:15:32;;;;;;;8.70;2.27;;;;;;;-145.18;100.00;46601.78;5053986;28;20144;-72
2022/10/19 10:17:58;;;;;;;4.90;1.63;;;;;;;-145.18;100.00;46599.84;5058818;28;20149;-72
2022/10/19 10:20:31;;;;;;;5.70;2.13;;;;;;;-145.18;100.00;46595.94;5051563;28;20065;-72
2022/10/19 10:23:02;;;;;;;11.57;2.90;;;;;;;-145.18;100.00;46599.84;5051101;28;20098;-71
2022/10/19 10:25:33;;;;;;;7.17;2.23;;;;;;;-145.18;100.00;46590.06;5049761;28;20147;-72
2022/10/19 10:28:22;;;;;;;6.97;2.43;;;;;;;-145.18;100.00;46599.84;5049752;28;20163;-72
2022/10/19 10:30:53;;;;;;;6.23;2.50;;;;;;;-145.18;100.00;46601.78;5047970;28;20029;-71
2022/10/19 10:33:25;;;;;;;7.13;2.97;;;;;;;-145.18;100.00;46595.94;5049418;28;20063;-72
2022/10/19 10:35:54;;;;;;;6.73;2.50;;;;;;;-145.18;100.00;46603.75;5049585;28;20051;-72
2022/10/19 10:38:26;;;;;;;14.50;3.07;;;;;;;-145.18;100.00;46611.56;5049638;28;20033;-72
2022/10/19 10:41:16;;;;;;;5.57;2.13;;;;;;;-145.18;100.00;46619.38;5049763;28;20033;-72
2022/10/19 10:43:58;;;;;;;8.07;2.40;;;;;;;-145.18;100.00;46627.19;5051680;28;20085;-72
2022/10/19 10:46:28;;;;;;;13.53;2.77;;;;;;;-145.18;100.00;46629.13;5053668;28;20116;-72
2022/10/19 10:48:58;;;;;;;7.47;2.07;;;;;;;-145.18;100.00;46633.06;5051254;28;20056;-71
2022/10/19 10:51:26;;;;;;;3.43;1.60;;;;;;;-145.18;100.00;46640.88;5054905;28;20029;-72
2022/10/19 10:54:25;;;;;;;5.20;2.27;;;;;;;-145.18;100.00;46650.63;5058426;28;20033;-72
2022/10/19 10:57:03;;;;;;;5.40;1.93;;;;;;;-145.18;100.00;46656.50;5054231;28;20416;-72
2022/10/19 10:59:43;;;;;;;7.63;2.10;;;;;;;-145.18;100.00;46652.59;5070722;28;20034;-72
2022/10/19 11:02:17;;;;;;;5.10;2.03;;;;;;;-145.18;100.00;46652.59;5068514;28;20045;-72
2022/10/19 11:04:49;;;;;;;9.70;2.67;;;;;;;-145.18;100.00;46640.88;5052327;28;20764;-72
2022/10/19 11:07:21;;;;;;;7.90;2.40;;;;;;;-145.18;100.00;46642.81;5052898;28;20039;-72
2022/10/19 11:09:55;;;;;;;6.00;2.30;;;;;;;-145.18;100.00;46644.78;5052516;28;20029;-72
2022/10/19 11:12:33;;;;;;;6.80;2.47;;;;;;;-145.18;100.00;46650.63;5058100;28;20021;-72
2022/10/19 11:15:12;;;;;;;8.57;2.60;;;;;;;-145.18;100.00;46642.81;5068623;28;20021;-73
2022/10/19 11:17:42;;;;;;;9.00;2.70;;;;;;;-145.18;100.00;46660.41;5072822;28;20039;-72
2022/10/19 11:20:14;;;;;;;6.67;2.67;;;;;;;-145.18;100.00;46656.50;5064093;28;20397;-72
2022/10/19 11:22:49;;;;;;;9.47;2.87;;;;;;;-145.18;100.00;46666.25;5052294;28;20029;-73
2022/10/19 11:25:38;;;;;;;5.23;2.27;;;;;;;-145.18;100.00;46660.41;5052157;28;20052;-72
2022/10/19 11:28:49;;;;;;;7.33;2.50;;;;;;;-145.18;100.00;46672.13;5052917;28;20036;-72
2022/10/19 11:31:23;;;;;;;7.53;2.70;;;;;;;-145.18;100.00;46672.13;5028772;28;20047;-73
2022/10/19 11:34:00;;;;;;;7.00;2.60;;;;;;;-145.18;100.00;46683.84;5055930;28;20040;-72
2022/10/19 11:36:43;;;;;;;5.30;2.17;;;;;;;-145.18;100.00;46683.84;5058868;28;20028;-72
2022/10/19 11:39:39;;;;;;;6.47;2.30;;;;;;;-145.18;100.00;46699.47;5072007;28;20036;-73
2022/10/19 11:42:24;;;;;;;11.07;2.03;;;;;;;-145.18;100.00;46720.94;5063237;28;20114;-73
2022/10/19 11:45:04;;;;;;;6.70;2.63;;;;;;;-145.18;100.00;46722.91;5061285;28;20042;-72
2022/10/19 11:47:42;;;;;;;8.57;2.60;;;;;;;-145.18;100.00;46707.28;5068670;28;20029;-73
2022/10/19 11:50:32;;;;;;;8.43;2.07;;;;;;;-145.18;100.00;46728.75;5067427;28;20040;-72
2022/10/19 11:53:27;;;;;;;5.40;2.17;;;;;;;-145.18;100.00;46738.53;5072123;28;20025;-72
2022/10/19 11:56:31;;;;;;;7.20;2.37;;;;;;;-145.18;100.00;46744.38;5070590;28;20020;-73
2022/10/19 11:59:10;;;;;;;8.03;2.40;;;;;;;-145.18;100.00;46783.47;5069905;28;20129;-73
2022/10/19 12:02:00;;;;;;;6.30;2.63;;;;;;;-145.18;100.00;46775.66;5071962;28;20028;-73
2022/10/19 12:04:29;;;;;;;6.43;2.10;;;;;;;-145.18;100.00;46924.09;5071998;28;20114;-73
2022/10/19 12:07:06;;;;;;;7.33;2.13;;;;;;;-145.18;100.00;47299.19;5071744;28;20040;-73
2022/10/19 12:09:44;;;;;;;10.10;2.20;;;;;;;-145.18;100.00;47297.22;5071385;28;20539;-73
2022/10/19 12:12:29;;;;;;;4.07;1.90;;;;;;;-145.18;100.00;47273.78;5071971;28;20024;-73
2022/10/19 12:15:04;;;;;;;4.73;1.83;;;;;;;-145.18;100.00;47191.75;5071466;28;20067;-73
2022/10/19 12:17:32;;;;;;;5.97;2.05;;;;;;;-145.18;100.00;47150.72;5053507;28;20033;-73
2022/10/19 12:20:04;;;;;;;6.10;1.83;;;;;;;-145.18;100.00;47129.22;5051201;28;20156;-73
2022/10/19 12:22:30;;;;;;;5.07;1.80;;;;;;;-145.18;100.00;47109.69;5067582;28;20020;-73
2022/10/19 12:24:59;;;;;;;10.40;1.73;;;;;;;-145.18;100.00;47152.66;5088230;28;20074;-73
2022/10/19 12:27:37;;;;;;;7.20;2.10;;;;;;;-145.18;100.00;47090.16;5083072;28;20030;-74
2022/10/19 12:30:17;;;;;;;4.87;2.10;;;;;;;-145.18;100.00;47070.63;5077390;28;20063;-73
2022/10/19 12:32:51;;;;;;;7.83;2.37;;;;;;;-145.18;100.00;47101.88;5071107;28;20028;-73
2022/10/19 12:35:46;;;;;;;6.67;2.40;;;;;;;-145.18;100.00;47084.28;5071034;28;20028;-73
2022/10/19 12:38:18;;;;;;;10.25;2.45;;;;;;;-145.18;100.00;47033.50;5071167;28;20039;-73
2022/10/19 12:40:55;;;;;;;5.87;1.70;;;;;;;-145.18;100.00;47051.09;5070698;28;20111;-72
2022/10/19 12:43:35;;;;;;;4.50;2.37;;;;;;;-145.18;100.00;47012.00;5071538;28;20386;-72
2022/10/19 12:46:22;;;;;;;5.70;1.60;;;;;;;-145.18;100.00;47039.34;5071306;28;20025;-73
2022/10/19 12:49:29;;;;;;;4.33;1.87;;;;;;;-145.18;100.00;47015.91;5070563;28;20025;-74
2022/10/19 12:51:57;;;;;;;4.95;2.03;;;;;;;-145.18;100.00;47004.19;5040754;28;20044;-73
2022/10/19 12:54:24;;;;;;;8.33;1.90;;;;;;;-145.18;100.00;47015.91;5070912;28;20035;-73
2022/10/19 12:56:53;;;;;;;5.87;1.90;;;;;;;-145.18;100.00;47000.28;5070738;28;20028;-73
2022/10/19 12:59:23;;;;;;;8.20;2.10;;;;;;;-145.18;100.00;46994.44;5070605;28;20032;-73
2022/10/19 13:01:50;;;;;;;10.70;2.07;;;;;;;-145.18;100.00;46969.03;5069334;28;20020;-73
2022/10/19 13:04:21;;;;;;;7.03;2.23;;;;;;;-145.18;100.00;46982.72;5069324;28;20050;-74
2022/10/19 13:06:49;;;;;;;5.17;3.20;;;;;;;-145.18;100.00;46996.38;5069285;28;20374;-74
2022/10/19 13:09:34;;;;;;;5.43;1.70;;;;;;;-145.18;100.00;47006.16;5069030;28;20020;-73
2022/10/19 13:12:14;;;;;;;5.13;1.60;;;;;;;-145.18;100.00;47015.91;5068369;28;20557;-73
2022/10/19 13:14:41;;;;;;;5.10;1.70;;;;;;;-145.18;100.00;46980.75;5067550;28;20033;-74
2022/10/19 13:17:07;;;;;;;4.33;1.80;;;;;;;-145.18;100.00;46961.22;5069926;28;20028;-74
2022/10/19 13:19:33;;;;;;;7.47;2.10;;;;;;;-145.18;100.00;46955.34;5070134;28;20039;-74
2022/10/19 13:22:18;;;;;;;3.87;1.47;;;;;;;-145.18;100.00;46951.44;5070568;28;20029;-74
2022/10/19 13:25:18;;;;;;;6.07;2.03;;;;;;;-145.18;100.00;46976.84;5069537;28;20074;-74
2022/10/19 13:27:48;;;;;;;6.43;1.90;;;;;;;-145.18;100.00;46998.34;5070389;28;20032;-74
2022/10/19 13:30:42;;;;;;;5.47;2.30;;;;;;;-145.18;100.00;46955.34;5070146;28;20095;-74
2022/10/19 13:33:32;;;;;;;2.83;1.57;;;;;;;-145.18;100.00;46949.50;5070579;28;20029;-75
2022/10/19 13:35:57;;;;;;;6.00;2.10;;;;;;;-145.18;100.00;46933.88;5070047;28;20070;-75
2022/10/19 13:38:28;;;;;;;4.27;1.83;;;;;;;-145.18;100.00;46998.34;5075040;28;20560;-75
2022/10/19 13:41:07;;;;;;;5.43;2.00;;;;;;;-145.18;100.00;47045.22;5071320;28;20052;-75
2022/10/19 13:43:39;;;;;;;4.53;1.60;;;;;;;-145.18;100.00;47053.03;5070327;28;20033;-74
2022/10/19 13:46:50;;;;;;;5.73;1.93;;;;;;;-145.18;100.00;47097.97;5070164;28;20550;-74
2022/10/19 13:49:25;;;;;;;7.07;2.10;;;;;;;-145.18;100.00;47144.84;5012068;28;20393;-73
2022/10/19 13:52:35;;;;;;;8.17;2.27;;;;;;;-145.18;100.00;47215.19;5069407;28;20056;-74
2022/10/19 13:55:15;;;;;;;7.97;2.17;;;;;;;-145.18;100.00;47221.03;5041623;28;20032;-73
2022/10/19 13:57:41;;;;;;;8.00;1.90;;;;;;;-145.18;100.00;47262.06;5067664;28;20032;-73
2022/10/19 14:00:12;;;;;;;4.33;1.53;;;;;;;-145.18;100.00;47246.44;5068502;28;20036;-73
2022/10/19 14:02:50;;;;;;;3.20;1.73;;;;;;;-145.18;100.00;47232.75;5069797;28;20628;-73
2022/10/19 14:05:39;;;;;;;5.97;2.30;;;;;;;-145.18;100.00;47187.84;5082792;28;20043;-73
2022/10/19 14:08:13;;;;;;;7.80;2.20;;;;;;;-145.18;100.00;47185.88;5071432;28;20444;-73
2022/10/19 14:10:40;;;;;;;4.63;1.73;;;;;;;-145.18;100.00;47230.81;5068125;28;20043;-73
2022/10/19 14:13:13;;;;;;;6.47;1.90;;;;;;;-145.18;100.00;47207.38;5069441;28;20028;-73
2022/10/19 14:15:38;;;;;;;6.13;1.80;;;;;;;-145.18;100.00;47185.88;5068985;28;20103;-73
2022/10/19 14:18:21;;;;;;;6.60;1.60;;;;;;;-145.18;100.00;47140.94;5071412;28;20461;-73
2022/10/19 14:20:55;;;;;;;4.93;1.90;;;;;;;-145.18;100.00;47006.16;5072237;28;20028;-73